Creil Fafb, France

11:52 AM CEST on April 25, 2017 (GMT +0200)
Charles de Gaulle | | Change Station

Elev 358 ft 49.02 °N, 2.53 °E | Updated 22 minutes ago

Partly Cloudy
Partly Cloudy
45 °F
Feels Like 39 °F
N
10
Wind Variable Wind from North

Today
High -- | Low -- °F
--% Chance of Precip.
Yesterday
High -- | Low -- °F
Precip. -- in
Pressure 29.89 in
Visibility 6.2 miles
Clouds Few 3500 ft
Mostly Cloudy 7800 ft
Windchill 39 °F
Dew Point 28 °F
Humidity 53%
Rainfall 0.00 in
Snow Depth Not available.
6:39 AM 8:57 PM
Waning Crescent, 2% visible
METAR LFPG 250930Z 01009KT 9999 FEW035 BKN078 07/M02 Q1012 NOSIG
Pressure 29.89 in
Visibility 6.2 miles
Clouds Few 3500 ft
Mostly Cloudy 7800 ft
Windchill 39 °F
Dew Point 28 °F
Humidity 53%
Rainfall 0.00 in
Snow Depth Not available.
6:39 AM 8:57 PM
Waning Crescent, 2% visible
METAR LFPG 250930Z 01009KT 9999 FEW035 BKN078 07/M02 Q1012 NOSIG

Get Severe Weather Alerts

Thanks for signing up!

Be on the lookout for a verification email in your inbox.

You'll start receiving the daily forecast at 8 AM.

×

10-Day Weather Forecast

×

Almanac

Astronomy

Apr. 25, 2017 Rise Set
Actual Time
Civil Twilight
Nautical Twilight
Astronomical Twilight
Moon
Length of Visible Light
Length of Day
Tomorrow will be .
, % of the Moon is Illuminated

Today's Extremes

Country Highs Country Lows

Community

WunderPhotos

WunderBlog® & News

Nearby

Air Quality

  Air Quality AQ Index Pollutant
Not available.

Snow Depth

Station Depth Elevation

Earthquake Activity

City Distance Mag. Time & Date
Minimum magnitude displayed is 2.5.

Coastal Water Temperatures

Place Temperature

Stations

Nearby Weather Stations

Station Location Temp. Windchill Dew Point Humidity Wind Precip. Elev Updated Type